Toyo Maru — JI3710 — position and weather

sailwx.info

Track history (hours):
 
Tides and Currents Weather Stations Pressure Air Temp Water Temp Dewpoint Dewpoint Depression Visibility Wind Speed Wind Dir Waves Ship Positions

Toyo Maru

Last reported at 2015-Mar-26 17:14 UTC. Time now 2015-Mar-27 03:36 UTC.
Position N 34°05' E 134°48'.

Length 125 m; draft 6 m.

Type: Cargo ship. MMSI: 431401953.

Date/timePositionNaut miles runAvg speedWind from/ knotsBaromVisibWave heightAir tempDewpointWater temp
2015-Mar-26 17:14N 34°05' E 134°48'  
2015-Mar-24 12:30N 34°55' E 139°27'1617.3
2015-Mar-24 11:33N 35°06' E 139°42'1212.3
2015-Mar-24 10:33N 35°19' E 139°44'1312.7
2015-Mar-24 09:33N 35°30' E 139°52'1313.4
2015-Mar-24 08:33N 35°36' E 140°06'0 0.0
2015-Mar-24 07:33N 35°36' E 140°06'0 0.0
2015-Mar-24 06:32N 35°36' E 140°06'0 0.0
2015-Mar-24 05:32N 35°36' E 140°06'1 1.3
2015-Mar-24 04:33N 35°37' E 140°05'0 0.0
2015-Mar-24 03:31N 35°37' E 140°05'0 0.0
2015-Mar-24 02:31N 35°37' E 140°05'0 0.0
2015-Mar-24 01:25N 35°37' E 140°05'0 0.0
2015-Mar-24 00:25N 35°37' E 140°05'0 0.0
2015-Mar-23 23:31N 35°37' E 140°05'0 0.0
2015-Mar-23 22:25N 35°37' E 140°05'1 1.6
2015-Mar-23 21:33N 35°36' E 140°04'9 8.9
2015-Mar-23 20:33N 35°31' E 139°55'1514.5
2015-Mar-23 19:33N 35°19' E 139°44'1413.8
2015-Mar-23 18:33N 35°06' E 139°45'248 9.8
2015-Mar-22 17:13N 33°54' E 134°57'1318.5
2015-Mar-22 16:32N 34°04' E 134°48'238 4.7
2015-Mar-20 13:28N 34°57' E 139°30'1617.5
2015-Mar-20 12:33N 35°08' E 139°44'1313.2
2015-Mar-20 11:33N 35°21' E 139°42'18 1.3
2015-Mar-19 21:07N 35°33' E 139°58'1016.8
2015-Mar-19 20:33N 35°27' E 139°50'1111.3
2015-Mar-19 19:33N 35°16' E 139°46'1515.0
2015-Mar-19 18:33N 35°02' E 139°39'  
Track history (hours):
 
Tides and Currents Weather Stations Pressure Air Temp Water Temp Dewpoint Dewpoint Depression Visibility Wind Speed Wind Dir Waves Ship Positions

Toyo Maru

Last reported at 2015-Mar-26 17:14 UTC. Time now 2015-Mar-27 03:36 UTC.
Position N 34°05' E 134°48'.

Length 125 m; draft 6 m.

Type: Cargo ship. MMSI: 431401953.

Date/timePositionNaut miles runAvg speedWind from/ knotsBaromVisibWave heightAir tempDewpointWater temp
2015-Mar-26 17:14N 34°05' E 134°48'  
2015-Mar-24 12:30N 34°55' E 139°27'1617.3
2015-Mar-24 11:33N 35°06' E 139°42'1212.3
2015-Mar-24 10:33N 35°19' E 139°44'1312.7
2015-Mar-24 09:33N 35°30' E 139°52'1313.4
2015-Mar-24 08:33N 35°36' E 140°06'0 0.0
2015-Mar-24 07:33N 35°36' E 140°06'0 0.0
2015-Mar-24 06:32N 35°36' E 140°06'0 0.0
2015-Mar-24 05:32N 35°36' E 140°06'1 1.3
2015-Mar-24 04:33N 35°37' E 140°05'0 0.0
2015-Mar-24 03:31N 35°37' E 140°05'0 0.0
2015-Mar-24 02:31N 35°37' E 140°05'0 0.0
2015-Mar-24 01:25N 35°37' E 140°05'0 0.0
2015-Mar-24 00:25N 35°37' E 140°05'0 0.0
2015-Mar-23 23:31N 35°37' E 140°05'0 0.0
2015-Mar-23 22:25N 35°37' E 140°05'1 1.6
2015-Mar-23 21:33N 35°36' E 140°04'9 8.9
2015-Mar-23 20:33N 35°31' E 139°55'1514.5
2015-Mar-23 19:33N 35°19' E 139°44'1413.8
2015-Mar-23 18:33N 35°06' E 139°45'248 9.8
2015-Mar-22 17:13N 33°54' E 134°57'1318.5
2015-Mar-22 16:32N 34°04' E 134°48'238 4.7
2015-Mar-20 13:28N 34°57' E 139°30'1617.5
2015-Mar-20 12:33N 35°08' E 139°44'1313.2
2015-Mar-20 11:33N 35°21' E 139°42'18 1.3
2015-Mar-19 21:07N 35°33' E 139°58'1016.8
2015-Mar-19 20:33N 35°27' E 139°50'1111.3
2015-Mar-19 19:33N 35°16' E 139°46'1515.0
2015-Mar-19 18:33N 35°02' E 139°39'  

Dump ship's entire track history